sensor_id;sensor_type;location;lat;lon;timestamp;P1;durP1;ratioP1;P2;durP2;ratioP2
75441;SDS011;64019;48.312;14.226;2022-10-23T00:00:32;19.90;;;7.10;;
75441;SDS011;64019;48.312;14.226;2022-10-23T00:02:59;21.70;;;7.40;;
75441;SDS011;64019;48.312;14.226;2022-10-23T00:05:25;17.00;;;8.23;;
75441;SDS011;64019;48.312;14.226;2022-10-23T00:07:53;17.67;;;8.43;;
75441;SDS011;64019;48.312;14.226;2022-10-23T00:10:21;19.83;;;7.97;;
75441;SDS011;64019;48.312;14.226;2022-10-23T00:12:47;19.13;;;8.63;;
75441;SDS011;64019;48.312;14.226;2022-10-23T00:15:15;17.77;;;8.13;;
75441;SDS011;64019;48.312;14.226;2022-10-23T00:17:43;21.03;;;8.17;;
75441;SDS011;64019;48.312;14.226;2022-10-23T00:20:09;20.40;;;7.63;;
75441;SDS011;64019;48.312;14.226;2022-10-23T00:22:36;16.83;;;8.13;;
75441;SDS011;64019;48.312;14.226;2022-10-23T00:25:02;27.50;;;9.10;;
75441;SDS011;64019;48.312;14.226;2022-10-23T00:27:32;20.23;;;8.10;;
75441;SDS011;64019;48.312;14.226;2022-10-23T00:29:59;12.47;;;7.73;;
75441;SDS011;64019;48.312;14.226;2022-10-23T00:32:25;12.10;;;7.57;;
75441;SDS011;64019;48.312;14.226;2022-10-23T00:34:51;14.57;;;6.80;;
75441;SDS011;64019;48.312;14.226;2022-10-23T00:37:17;24.10;;;7.63;;
75441;SDS011;64019;48.312;14.226;2022-10-23T00:39:44;14.10;;;7.37;;
75441;SDS011;64019;48.312;14.226;2022-10-23T00:42:12;20.63;;;8.00;;
75441;SDS011;64019;48.312;14.226;2022-10-23T00:47:08;21.23;;;6.83;;
75441;SDS011;64019;48.312;14.226;2022-10-23T00:49:35;14.50;;;7.33;;
75441;SDS011;64019;48.312;14.226;2022-10-23T00:52:02;10.50;;;6.70;;
75441;SDS011;64019;48.312;14.226;2022-10-23T00:54:32;14.80;;;7.63;;
75441;SDS011;64019;48.312;14.226;2022-10-23T00:57:02;13.20;;;7.07;;
75441;SDS011;64019;48.312;14.226;2022-10-23T00:59:29;11.93;;;6.77;;
75441;SDS011;64019;48.312;14.226;2022-10-23T01:01:55;22.13;;;7.77;;
75441;SDS011;64019;48.312;14.226;2022-10-23T01:04:21;18.33;;;7.93;;
75441;SDS011;64019;48.312;14.226;2022-10-23T01:09:33;14.90;;;7.77;;
75441;SDS011;64019;48.312;14.226;2022-10-23T01:15:15;19.33;;;8.23;;
75441;SDS011;64019;48.312;14.226;2022-10-23T01:17:55;14.57;;;7.17;;
75441;SDS011;64019;48.312;14.226;2022-10-23T01:31:17;24.17;;;6.43;;
75441;SDS011;64019;48.312;14.226;2022-10-23T01:34:07;38.17;;;7.97;;
75441;SDS011;64019;48.312;14.226;2022-10-23T01:36:37;61.60;;;7.60;;
75441;SDS011;64019;48.312;14.226;2022-10-23T01:39:06;28.43;;;6.47;;
75441;SDS011;64019;48.312;14.226;2022-10-23T01:41:41;15.73;;;7.27;;
75441;SDS011;64019;48.312;14.226;2022-10-23T01:44:28;28.60;;;7.13;;
75441;SDS011;64019;48.312;14.226;2022-10-23T01:47:04;39.93;;;8.43;;
75441;SDS011;64019;48.312;14.226;2022-10-23T01:49:32;55.80;;;9.00;;
75441;SDS011;64019;48.312;14.226;2022-10-23T01:52:01;96.43;;;9.83;;
75441;SDS011;64019;48.312;14.226;2022-10-23T01:54:31;61.67;;;9.23;;
75441;SDS011;64019;48.312;14.226;2022-10-23T01:57:00;54.87;;;9.23;;
75441;SDS011;64019;48.312;14.226;2022-10-23T01:59:29;27.17;;;8.17;;
75441;SDS011;64019;48.312;14.226;2022-10-23T02:01:59;34.67;;;7.93;;
75441;SDS011;64019;48.312;14.226;2022-10-23T02:04:30;64.93;;;9.27;;
75441;SDS011;64019;48.312;14.226;2022-10-23T02:07:00;38.73;;;8.90;;
75441;SDS011;64019;48.312;14.226;2022-10-23T02:09:26;23.27;;;8.10;;
75441;SDS011;64019;48.312;14.226;2022-10-23T02:14:32;22.00;;;8.80;;
75441;SDS011;64019;48.312;14.226;2022-10-23T02:17:07;15.00;;;8.43;;
75441;SDS011;64019;48.312;14.226;2022-10-23T02:22:22;17.13;;;8.10;;
75441;SDS011;64019;48.312;14.226;2022-10-23T02:25:01;27.33;;;8.63;;
75441;SDS011;64019;48.312;14.226;2022-10-23T02:27:52;14.03;;;7.93;;
75441;SDS011;64019;48.312;14.226;2022-10-23T02:30:20;26.23;;;8.77;;
75441;SDS011;64019;48.312;14.226;2022-10-23T02:32:47;22.67;;;8.17;;
75441;SDS011;64019;48.312;14.226;2022-10-23T02:35:15;21.10;;;9.10;;
75441;SDS011;64019;48.312;14.226;2022-10-23T02:37:43;28.83;;;11.07;;
75441;SDS011;64019;48.312;14.226;2022-10-23T02:40:20;29.27;;;10.17;;
75441;SDS011;64019;48.312;14.226;2022-10-23T02:42:51;26.77;;;11.30;;
75441;SDS011;64019;48.312;14.226;2022-10-23T02:45:45;41.07;;;12.43;;
75441;SDS011;64019;48.312;14.226;2022-10-23T02:48:24;34.13;;;11.03;;
75441;SDS011;64019;48.312;14.226;2022-10-23T02:53:35;35.30;;;11.37;;
75441;SDS011;64019;48.312;14.226;2022-10-23T03:01:28;22.60;;;10.43;;
75441;SDS011;64019;48.312;14.226;2022-10-23T03:04:02;19.83;;;10.27;;
75441;SDS011;64019;48.312;14.226;2022-10-23T03:06:31;17.30;;;8.90;;
75441;SDS011;64019;48.312;14.226;2022-10-23T03:09:07;30.90;;;10.33;;
75441;SDS011;64019;48.312;14.226;2022-10-23T03:11:33;20.17;;;9.70;;
75441;SDS011;64019;48.312;14.226;2022-10-23T03:13:59;23.07;;;10.40;;
75441;SDS011;64019;48.312;14.226;2022-10-23T03:16:25;31.07;;;10.23;;
75441;SDS011;64019;48.312;14.226;2022-10-23T03:18:51;24.73;;;10.63;;
75441;SDS011;64019;48.312;14.226;2022-10-23T03:21:17;21.17;;;9.57;;
75441;SDS011;64019;48.312;14.226;2022-10-23T03:23:42;25.43;;;10.00;;
75441;SDS011;64019;48.312;14.226;2022-10-23T03:26:08;23.43;;;10.07;;
75441;SDS011;64019;48.312;14.226;2022-10-23T03:28:34;24.20;;;9.83;;
75441;SDS011;64019;48.312;14.226;2022-10-23T03:30:59;29.07;;;10.17;;
75441;SDS011;64019;48.312;14.226;2022-10-23T03:33:26;22.57;;;10.67;;
75441;SDS011;64019;48.312;14.226;2022-10-23T03:35:52;22.17;;;11.53;;
75441;SDS011;64019;48.312;14.226;2022-10-23T03:38:18;27.30;;;13.10;;
75441;SDS011;64019;48.312;14.226;2022-10-23T03:40:44;23.57;;;12.67;;
75441;SDS011;64019;48.312;14.226;2022-10-23T03:43:09;23.50;;;12.97;;
75441;SDS011;64019;48.312;14.226;2022-10-23T03:45:35;25.60;;;12.23;;
75441;SDS011;64019;48.312;14.226;2022-10-23T03:48:02;39.27;;;12.57;;
75441;SDS011;64019;48.312;14.226;2022-10-23T03:50:29;27.30;;;11.80;;
75441;SDS011;64019;48.312;14.226;2022-10-23T03:52:55;29.70;;;11.63;;
75441;SDS011;64019;48.312;14.226;2022-10-23T03:55:21;22.53;;;10.53;;
75441;SDS011;64019;48.312;14.226;2022-10-23T03:57:46;28.30;;;12.03;;
75441;SDS011;64019;48.312;14.226;2022-10-23T04:00:12;26.73;;;11.50;;
75441;SDS011;64019;48.312;14.226;2022-10-23T04:02:38;25.47;;;10.70;;
75441;SDS011;64019;48.312;14.226;2022-10-23T04:05:04;27.30;;;11.30;;
75441;SDS011;64019;48.312;14.226;2022-10-23T04:07:30;20.70;;;11.17;;
75441;SDS011;64019;48.312;14.226;2022-10-23T04:09:56;24.77;;;9.63;;
75441;SDS011;64019;48.312;14.226;2022-10-23T04:12:21;21.20;;;10.40;;
75441;SDS011;64019;48.312;14.226;2022-10-23T04:14:47;24.27;;;10.93;;
75441;SDS011;64019;48.312;14.226;2022-10-23T04:17:13;21.37;;;10.67;;
75441;SDS011;64019;48.312;14.226;2022-10-23T04:19:38;18.17;;;10.13;;
75441;SDS011;64019;48.312;14.226;2022-10-23T04:22:04;26.57;;;9.80;;
75441;SDS011;64019;48.312;14.226;2022-10-23T04:24:29;24.83;;;10.03;;
75441;SDS011;64019;48.312;14.226;2022-10-23T04:26:55;17.20;;;9.67;;
75441;SDS011;64019;48.312;14.226;2022-10-23T04:29:21;23.77;;;10.43;;
75441;SDS011;64019;48.312;14.226;2022-10-23T04:31:48;33.10;;;11.07;;
75441;SDS011;64019;48.312;14.226;2022-10-23T04:34:15;24.23;;;11.23;;
75441;SDS011;64019;48.312;14.226;2022-10-23T04:36:41;22.43;;;10.67;;
75441;SDS011;64019;48.312;14.226;2022-10-23T04:39:07;23.93;;;11.40;;
75441;SDS011;64019;48.312;14.226;2022-10-23T04:41:33;20.43;;;10.13;;
75441;SDS011;64019;48.312;14.226;2022-10-23T04:43:59;22.57;;;10.43;;
75441;SDS011;64019;48.312;14.226;2022-10-23T04:46:24;23.43;;;11.10;;
75441;SDS011;64019;48.312;14.226;2022-10-23T04:48:50;26.23;;;11.77;;
75441;SDS011;64019;48.312;14.226;2022-10-23T04:51:16;28.43;;;10.73;;
75441;SDS011;64019;48.312;14.226;2022-10-23T04:53:41;24.40;;;10.70;;
75441;SDS011;64019;48.312;14.226;2022-10-23T04:56:10;29.03;;;12.40;;
75441;SDS011;64019;48.312;14.226;2022-10-23T04:58:38;42.70;;;15.73;;
75441;SDS011;64019;48.312;14.226;2022-10-23T05:01:04;43.47;;;14.60;;
75441;SDS011;64019;48.312;14.226;2022-10-23T05:03:31;43.23;;;14.70;;
75441;SDS011;64019;48.312;14.226;2022-10-23T05:05:57;38.23;;;14.83;;
75441;SDS011;64019;48.312;14.226;2022-10-23T05:08:22;53.47;;;16.33;;
75441;SDS011;64019;48.312;14.226;2022-10-23T05:10:49;41.37;;;14.37;;
75441;SDS011;64019;48.312;14.226;2022-10-23T05:13:16;38.00;;;14.80;;
75441;SDS011;64019;48.312;14.226;2022-10-23T05:15:44;38.87;;;13.90;;
75441;SDS011;64019;48.312;14.226;2022-10-23T05:18:18;38.10;;;14.50;;
75441;SDS011;64019;48.312;14.226;2022-10-23T05:20:51;39.30;;;14.47;;
75441;SDS011;64019;48.312;14.226;2022-10-23T05:23:21;33.30;;;13.73;;
75441;SDS011;64019;48.312;14.226;2022-10-23T05:25:49;36.57;;;13.63;;
75441;SDS011;64019;48.312;14.226;2022-10-23T05:28:15;28.40;;;13.57;;
75441;SDS011;64019;48.312;14.226;2022-10-23T05:30:40;44.63;;;13.93;;
75441;SDS011;64019;48.312;14.226;2022-10-23T05:33:06;54.77;;;15.30;;
75441;SDS011;64019;48.312;14.226;2022-10-23T05:35:33;35.67;;;15.37;;
75441;SDS011;64019;48.312;14.226;2022-10-23T05:38:01;41.30;;;14.13;;
75441;SDS011;64019;48.312;14.226;2022-10-23T05:40:26;35.93;;;14.23;;
75441;SDS011;64019;48.312;14.226;2022-10-23T05:42:52;41.70;;;14.07;;
75441;SDS011;64019;48.312;14.226;2022-10-23T05:45:18;38.63;;;14.63;;
75441;SDS011;64019;48.312;14.226;2022-10-23T05:47:44;68.80;;;25.30;;
75441;SDS011;64019;48.312;14.226;2022-10-23T05:50:10;67.70;;;24.67;;
75441;SDS011;64019;48.312;14.226;2022-10-23T05:52:36;73.17;;;21.43;;
75441;SDS011;64019;48.312;14.226;2022-10-23T05:55:02;69.47;;;29.30;;
75441;SDS011;64019;48.312;14.226;2022-10-23T05:57:30;55.87;;;25.00;;
75441;SDS011;64019;48.312;14.226;2022-10-23T05:59:57;31.13;;;16.13;;
75441;SDS011;64019;48.312;14.226;2022-10-23T06:02:22;26.93;;;13.00;;
75441;SDS011;64019;48.312;14.226;2022-10-23T06:04:48;33.10;;;14.57;;
75441;SDS011;64019;48.312;14.226;2022-10-23T06:07:14;38.80;;;15.07;;
75441;SDS011;64019;48.312;14.226;2022-10-23T06:09:40;43.13;;;13.10;;
75441;SDS011;64019;48.312;14.226;2022-10-23T06:12:06;38.53;;;13.87;;
75441;SDS011;64019;48.312;14.226;2022-10-23T06:14:32;37.43;;;13.50;;
75441;SDS011;64019;48.312;14.226;2022-10-23T06:16:57;32.57;;;14.13;;
75441;SDS011;64019;48.312;14.226;2022-10-23T06:19:23;31.20;;;12.87;;
75441;SDS011;64019;48.312;14.226;2022-10-23T06:21:49;31.67;;;15.03;;
75441;SDS011;64019;48.312;14.226;2022-10-23T06:24:14;28.47;;;12.43;;
75441;SDS011;64019;48.312;14.226;2022-10-23T06:26:40;34.00;;;13.60;;
75441;SDS011;64019;48.312;14.226;2022-10-23T06:29:06;33.97;;;12.77;;
75441;SDS011;64019;48.312;14.226;2022-10-23T06:31:31;36.67;;;13.50;;
75441;SDS011;64019;48.312;14.226;2022-10-23T06:33:57;35.67;;;15.23;;
75441;SDS011;64019;48.312;14.226;2022-10-23T06:36:24;31.37;;;13.50;;
75441;SDS011;64019;48.312;14.226;2022-10-23T06:38:49;34.63;;;13.83;;
75441;SDS011;64019;48.312;14.226;2022-10-23T06:41:16;29.97;;;13.30;;
75441;SDS011;64019;48.312;14.226;2022-10-23T06:43:46;29.20;;;14.00;;
75441;SDS011;64019;48.312;14.226;2022-10-23T06:46:12;38.90;;;13.23;;
75441;SDS011;64019;48.312;14.226;2022-10-23T06:48:39;34.43;;;12.03;;
75441;SDS011;64019;48.312;14.226;2022-10-23T06:51:06;39.17;;;12.70;;
75441;SDS011;64019;48.312;14.226;2022-10-23T06:53:34;34.70;;;12.97;;
75441;SDS011;64019;48.312;14.226;2022-10-23T06:56:00;38.93;;;12.27;;
75441;SDS011;64019;48.312;14.226;2022-10-23T06:58:27;31.73;;;13.00;;
75441;SDS011;64019;48.312;14.226;2022-10-23T07:00:53;32.03;;;12.77;;
75441;SDS011;64019;48.312;14.226;2022-10-23T07:03:19;26.40;;;12.57;;
75441;SDS011;64019;48.312;14.226;2022-10-23T07:05:45;30.67;;;12.67;;
75441;SDS011;64019;48.312;14.226;2022-10-23T07:08:14;32.27;;;12.97;;
75441;SDS011;64019;48.312;14.226;2022-10-23T07:10:39;39.70;;;13.47;;
75441;SDS011;64019;48.312;14.226;2022-10-23T07:13:08;42.93;;;14.53;;
75441;SDS011;64019;48.312;14.226;2022-10-23T07:15:35;40.17;;;15.13;;
75441;SDS011;64019;48.312;14.226;2022-10-23T07:18:02;49.20;;;17.87;;
75441;SDS011;64019;48.312;14.226;2022-10-23T07:20:28;41.90;;;16.83;;
75441;SDS011;64019;48.312;14.226;2022-10-23T07:22:54;44.20;;;17.40;;
75441;SDS011;64019;48.312;14.226;2022-10-23T07:25:24;42.33;;;15.43;;
75441;SDS011;64019;48.312;14.226;2022-10-23T07:27:50;41.10;;;15.43;;
75441;SDS011;64019;48.312;14.226;2022-10-23T07:30:16;36.37;;;13.23;;
75441;SDS011;64019;48.312;14.226;2022-10-23T07:32:42;38.27;;;14.73;;
75441;SDS011;64019;48.312;14.226;2022-10-23T07:35:09;37.67;;;14.30;;
75441;SDS011;64019;48.312;14.226;2022-10-23T07:37:36;46.80;;;13.33;;
75441;SDS011;64019;48.312;14.226;2022-10-23T07:40:02;36.33;;;13.03;;
75441;SDS011;64019;48.312;14.226;2022-10-23T07:42:29;29.10;;;13.33;;
75441;SDS011;64019;48.312;14.226;2022-10-23T07:44:54;30.23;;;11.90;;
75441;SDS011;64019;48.312;14.226;2022-10-23T07:47:20;23.50;;;10.83;;
75441;SDS011;64019;48.312;14.226;2022-10-23T07:49:46;28.37;;;11.13;;
75441;SDS011;64019;48.312;14.226;2022-10-23T07:52:12;25.93;;;12.03;;
75441;SDS011;64019;48.312;14.226;2022-10-23T07:54:38;28.03;;;11.73;;
75441;SDS011;64019;48.312;14.226;2022-10-23T07:57:04;24.67;;;11.80;;
75441;SDS011;64019;48.312;14.226;2022-10-23T07:59:31;27.77;;;12.00;;
75441;SDS011;64019;48.312;14.226;2022-10-23T08:01:57;26.10;;;11.93;;
75441;SDS011;64019;48.312;14.226;2022-10-23T08:04:23;26.17;;;11.80;;
75441;SDS011;64019;48.312;14.226;2022-10-23T08:06:49;25.17;;;11.50;;
75441;SDS011;64019;48.312;14.226;2022-10-23T08:09:15;31.70;;;12.13;;
75441;SDS011;64019;48.312;14.226;2022-10-23T08:11:41;25.53;;;11.57;;
75441;SDS011;64019;48.312;14.226;2022-10-23T08:14:07;28.30;;;11.60;;
75441;SDS011;64019;48.312;14.226;2022-10-23T08:16:35;22.57;;;11.17;;
75441;SDS011;64019;48.312;14.226;2022-10-23T08:19:03;24.23;;;11.87;;
75441;SDS011;64019;48.312;14.226;2022-10-23T08:21:30;23.67;;;11.63;;
75441;SDS011;64019;48.312;14.226;2022-10-23T08:23:56;30.60;;;11.97;;
75441;SDS011;64019;48.312;14.226;2022-10-23T08:26:23;26.77;;;12.77;;
75441;SDS011;64019;48.312;14.226;2022-10-23T08:28:53;29.73;;;14.30;;
75441;SDS011;64019;48.312;14.226;2022-10-23T08:31:19;28.87;;;13.30;;
75441;SDS011;64019;48.312;14.226;2022-10-23T08:33:45;26.10;;;13.00;;
75441;SDS011;64019;48.312;14.226;2022-10-23T08:36:19;31.47;;;13.53;;
75441;SDS011;64019;48.312;14.226;2022-10-23T08:38:46;37.43;;;15.87;;
75441;SDS011;64019;48.312;14.226;2022-10-23T08:41:23;44.57;;;17.23;;
75441;SDS011;64019;48.312;14.226;2022-10-23T08:43:50;46.40;;;19.03;;
75441;SDS011;64019;48.312;14.226;2022-10-23T08:46:25;45.83;;;19.17;;
75441;SDS011;64019;48.312;14.226;2022-10-23T08:49:16;45.43;;;19.30;;
75441;SDS011;64019;48.312;14.226;2022-10-23T08:51:41;47.40;;;19.97;;
75441;SDS011;64019;48.312;14.226;2022-10-23T08:54:12;47.13;;;20.10;;
75441;SDS011;64019;48.312;14.226;2022-10-23T08:56:41;56.97;;;21.57;;
75441;SDS011;64019;48.312;14.226;2022-10-23T08:59:14;49.93;;;21.07;;
75441;SDS011;64019;48.312;14.226;2022-10-23T09:02:00;56.30;;;22.30;;
75441;SDS011;64019;48.312;14.226;2022-10-23T09:04:32;64.73;;;24.90;;
75441;SDS011;64019;48.312;14.226;2022-10-23T09:12:29;70.83;;;26.73;;
75441;SDS011;64019;48.312;14.226;2022-10-23T09:17:25;67.47;;;24.83;;
75441;SDS011;64019;48.312;14.226;2022-10-23T09:22:45;72.77;;;26.70;;
75441;SDS011;64019;48.312;14.226;2022-10-23T09:25:23;65.83;;;26.63;;
75441;SDS011;64019;48.312;14.226;2022-10-23T09:27:52;78.33;;;25.03;;
75441;SDS011;64019;48.312;14.226;2022-10-23T09:30:27;79.23;;;27.27;;
75441;SDS011;64019;48.312;14.226;2022-10-23T09:32:55;71.03;;;24.93;;
75441;SDS011;64019;48.312;14.226;2022-10-23T09:35:22;79.50;;;27.97;;
75441;SDS011;64019;48.312;14.226;2022-10-23T09:37:50;56.70;;;22.07;;
75441;SDS011;64019;48.312;14.226;2022-10-23T09:43:03;61.87;;;21.73;;
75441;SDS011;64019;48.312;14.226;2022-10-23T09:45:38;58.93;;;20.93;;
75441;SDS011;64019;48.312;14.226;2022-10-23T09:48:14;70.10;;;23.67;;
75441;SDS011;64019;48.312;14.226;2022-10-23T09:51:16;66.37;;;22.70;;
75441;SDS011;64019;48.312;14.226;2022-10-23T09:53:57;66.60;;;23.70;;
75441;SDS011;64019;48.312;14.226;2022-10-23T09:56:25;70.03;;;24.10;;
75441;SDS011;64019;48.312;14.226;2022-10-23T09:59:36;106.23;;;32.03;;
75441;SDS011;64019;48.312;14.226;2022-10-23T10:02:15;110.80;;;32.13;;
75441;SDS011;64019;48.312;14.226;2022-10-23T10:04:43;107.57;;;32.30;;
75441;SDS011;64019;48.312;14.226;2022-10-23T10:07:22;111.60;;;31.10;;
75441;SDS011;64019;48.312;14.226;2022-10-23T10:09:51;85.67;;;29.90;;
75441;SDS011;64019;48.312;14.226;2022-10-23T10:15:27;84.33;;;27.20;;
75441;SDS011;64019;48.312;14.226;2022-10-23T10:18:10;96.13;;;30.37;;
75441;SDS011;64019;48.312;14.226;2022-10-23T10:20:52;95.67;;;28.77;;
75441;SDS011;64019;48.312;14.226;2022-10-23T10:36:48;65.27;;;23.43;;
75441;SDS011;64019;48.312;14.226;2022-10-23T10:41:50;58.80;;;20.10;;
75441;SDS011;64019;48.312;14.226;2022-10-23T10:57:58;48.83;;;18.87;;
75441;SDS011;64019;48.312;14.226;2022-10-23T11:00:46;42.60;;;17.57;;
75441;SDS011;64019;48.312;14.226;2022-10-23T11:06:14;48.40;;;18.30;;
75441;SDS011;64019;48.312;14.226;2022-10-23T11:08:43;45.60;;;18.50;;
75441;SDS011;64019;48.312;14.226;2022-10-23T11:14:16;43.40;;;18.10;;
75441;SDS011;64019;48.312;14.226;2022-10-23T11:19:47;50.23;;;17.70;;
75441;SDS011;64019;48.312;14.226;2022-10-23T11:22:41;48.27;;;18.03;;
75441;SDS011;64019;48.312;14.226;2022-10-23T11:36:53;58.93;;;19.13;;
75441;SDS011;64019;48.312;14.226;2022-10-23T11:39:28;53.37;;;19.43;;
75441;SDS011;64019;48.312;14.226;2022-10-23T11:41:57;50.20;;;17.97;;
75441;SDS011;64019;48.312;14.226;2022-10-23T11:44:46;51.27;;;19.40;;
75441;SDS011;64019;48.312;14.226;2022-10-23T11:52:31;46.93;;;16.80;;
75441;SDS011;64019;48.312;14.226;2022-10-23T11:55:18;37.57;;;14.93;;
75441;SDS011;64019;48.312;14.226;2022-10-23T12:00:29;25.60;;;12.37;;
75441;SDS011;64019;48.312;14.226;2022-10-23T12:02:56;26.67;;;11.70;;
75441;SDS011;64019;48.312;14.226;2022-10-23T12:05:33;32.63;;;12.60;;
75441;SDS011;64019;48.312;14.226;2022-10-23T12:08:04;31.90;;;11.83;;
75441;SDS011;64019;48.312;14.226;2022-10-23T12:10:42;33.83;;;12.37;;
75441;SDS011;64019;48.312;14.226;2022-10-23T12:15:58;29.83;;;12.03;;
75441;SDS011;64019;48.312;14.226;2022-10-23T12:18:23;29.13;;;12.57;;
75441;SDS011;64019;48.312;14.226;2022-10-23T12:20:56;27.00;;;10.53;;
75441;SDS011;64019;48.312;14.226;2022-10-23T12:26:21;21.97;;;9.53;;
75441;SDS011;64019;48.312;14.226;2022-10-23T12:39:30;12.10;;;5.60;;
75441;SDS011;64019;48.312;14.226;2022-10-23T12:42:04;10.13;;;5.27;;
75441;SDS011;64019;48.312;14.226;2022-10-23T12:44:39;13.57;;;4.53;;
75441;SDS011;64019;48.312;14.226;2022-10-23T12:47:05;8.90;;;4.27;;
75441;SDS011;64019;48.312;14.226;2022-10-23T12:49:30;8.70;;;4.37;;
75441;SDS011;64019;48.312;14.226;2022-10-23T12:51:59;13.07;;;5.10;;
75441;SDS011;64019;48.312;14.226;2022-10-23T12:54:26;11.47;;;4.17;;
75441;SDS011;64019;48.312;14.226;2022-10-23T12:56:52;6.50;;;3.83;;
75441;SDS011;64019;48.312;14.226;2022-10-23T12:59:22;12.33;;;5.20;;
75441;SDS011;64019;48.312;14.226;2022-10-23T13:02:20;11.67;;;4.63;;
75441;SDS011;64019;48.312;14.226;2022-10-23T13:04:51;11.73;;;4.30;;
75441;SDS011;64019;48.312;14.226;2022-10-23T13:07:19;11.57;;;4.10;;
75441;SDS011;64019;48.312;14.226;2022-10-23T13:09:48;10.70;;;3.80;;
75441;SDS011;64019;48.312;14.226;2022-10-23T13:17:36;7.87;;;3.57;;
75441;SDS011;64019;48.312;14.226;2022-10-23T13:20:24;8.80;;;3.80;;
75441;SDS011;64019;48.312;14.226;2022-10-23T13:23:38;6.50;;;3.33;;
75441;SDS011;64019;48.312;14.226;2022-10-23T13:25:51;5.47;;;3.07;;
75441;SDS011;64019;48.312;14.226;2022-10-23T13:29:00;6.90;;;3.33;;
75441;SDS011;64019;48.312;14.226;2022-10-23T13:31:29;6.73;;;3.10;;
75441;SDS011;64019;48.312;14.226;2022-10-23T13:36:26;10.97;;;3.43;;
75441;SDS011;64019;48.312;14.226;2022-10-23T13:41:38;6.47;;;3.03;;
75441;SDS011;64019;48.312;14.226;2022-10-23T13:44:05;6.87;;;3.10;;
75441;SDS011;64019;48.312;14.226;2022-10-23T13:46:33;6.87;;;3.63;;
75441;SDS011;64019;48.312;14.226;2022-10-23T13:48:58;7.43;;;3.40;;
75441;SDS011;64019;48.312;14.226;2022-10-23T13:51:26;5.37;;;2.63;;
75441;SDS011;64019;48.312;14.226;2022-10-23T13:53:53;5.17;;;2.40;;
75441;SDS011;64019;48.312;14.226;2022-10-23T13:56:19;7.37;;;3.63;;
75441;SDS011;64019;48.312;14.226;2022-10-23T13:58:46;7.73;;;3.60;;
75441;SDS011;64019;48.312;14.226;2022-10-23T14:01:23;11.63;;;3.37;;
75441;SDS011;64019;48.312;14.226;2022-10-23T14:03:51;11.07;;;4.30;;
75441;SDS011;64019;48.312;14.226;2022-10-23T14:06:18;11.07;;;4.00;;
75441;SDS011;64019;48.312;14.226;2022-10-23T14:08:43;8.80;;;3.57;;
75441;SDS011;64019;48.312;14.226;2022-10-23T14:11:10;10.13;;;4.47;;
75441;SDS011;64019;48.312;14.226;2022-10-23T14:13:36;11.60;;;4.57;;
75441;SDS011;64019;48.312;14.226;2022-10-23T14:16:02;11.37;;;4.80;;
75441;SDS011;64019;48.312;14.226;2022-10-23T14:18:28;10.07;;;4.47;;
75441;SDS011;64019;48.312;14.226;2022-10-23T14:20:54;12.07;;;4.70;;
75441;SDS011;64019;48.312;14.226;2022-10-23T14:23:23;12.63;;;4.27;;
75441;SDS011;64019;48.312;14.226;2022-10-23T14:25:48;6.43;;;3.87;;
75441;SDS011;64019;48.312;14.226;2022-10-23T14:28:14;8.87;;;3.57;;
75441;SDS011;64019;48.312;14.226;2022-10-23T14:30:40;9.10;;;3.87;;
75441;SDS011;64019;48.312;14.226;2022-10-23T14:33:05;8.50;;;4.63;;
75441;SDS011;64019;48.312;14.226;2022-10-23T14:35:31;8.77;;;3.97;;
75441;SDS011;64019;48.312;14.226;2022-10-23T14:37:56;12.00;;;4.30;;
75441;SDS011;64019;48.312;14.226;2022-10-23T14:40:22;11.03;;;4.23;;
75441;SDS011;64019;48.312;14.226;2022-10-23T14:42:48;12.17;;;5.13;;
75441;SDS011;64019;48.312;14.226;2022-10-23T14:45:14;12.53;;;4.23;;
75441;SDS011;64019;48.312;14.226;2022-10-23T14:47:39;7.40;;;4.03;;
75441;SDS011;64019;48.312;14.226;2022-10-23T14:50:05;9.83;;;3.50;;
75441;SDS011;64019;48.312;14.226;2022-10-23T14:52:31;8.93;;;4.10;;
75441;SDS011;64019;48.312;14.226;2022-10-23T14:54:57;10.77;;;4.17;;
75441;SDS011;64019;48.312;14.226;2022-10-23T14:57:24;12.60;;;4.53;;
75441;SDS011;64019;48.312;14.226;2022-10-23T14:59:50;9.20;;;3.67;;
75441;SDS011;64019;48.312;14.226;2022-10-23T15:02:15;7.93;;;3.83;;
75441;SDS011;64019;48.312;14.226;2022-10-23T15:04:41;6.83;;;3.53;;
75441;SDS011;64019;48.312;14.226;2022-10-23T15:07:07;8.20;;;3.63;;
75441;SDS011;64019;48.312;14.226;2022-10-23T15:09:32;8.70;;;3.77;;
75441;SDS011;64019;48.312;14.226;2022-10-23T15:12:00;7.87;;;3.90;;
75441;SDS011;64019;48.312;14.226;2022-10-23T15:14:27;13.87;;;4.23;;
75441;SDS011;64019;48.312;14.226;2022-10-23T15:16:53;10.43;;;4.00;;
75441;SDS011;64019;48.312;14.226;2022-10-23T15:19:19;8.03;;;3.43;;
75441;SDS011;64019;48.312;14.226;2022-10-23T15:21:48;8.43;;;4.10;;
75441;SDS011;64019;48.312;14.226;2022-10-23T15:24:14;8.97;;;4.30;;
75441;SDS011;64019;48.312;14.226;2022-10-23T15:26:41;6.73;;;3.40;;
75441;SDS011;64019;48.312;14.226;2022-10-23T15:29:09;7.70;;;3.70;;
75441;SDS011;64019;48.312;14.226;2022-10-23T15:34:25;12.10;;;3.40;;
75441;SDS011;64019;48.312;14.226;2022-10-23T15:36:53;7.57;;;3.60;;
75441;SDS011;64019;48.312;14.226;2022-10-23T15:39:21;7.07;;;3.60;;
75441;SDS011;64019;48.312;14.226;2022-10-23T15:41:50;7.93;;;3.70;;
75441;SDS011;64019;48.312;14.226;2022-10-23T15:44:18;8.30;;;3.30;;
75441;SDS011;64019;48.312;14.226;2022-10-23T15:46:46;9.67;;;4.00;;
75441;SDS011;64019;48.312;14.226;2022-10-23T15:49:12;8.90;;;3.60;;
75441;SDS011;64019;48.312;14.226;2022-10-23T15:51:38;8.53;;;2.90;;
75441;SDS011;64019;48.312;14.226;2022-10-23T15:54:05;4.23;;;2.73;;
75441;SDS011;64019;48.312;14.226;2022-10-23T15:56:32;9.73;;;2.73;;
75441;SDS011;64019;48.312;14.226;2022-10-23T15:58:59;6.17;;;2.90;;
75441;SDS011;64019;48.312;14.226;2022-10-23T16:01:25;5.47;;;2.83;;
75441;SDS011;64019;48.312;14.226;2022-10-23T16:03:50;9.03;;;3.43;;
75441;SDS011;64019;48.312;14.226;2022-10-23T16:06:17;9.53;;;2.90;;
75441;SDS011;64019;48.312;14.226;2022-10-23T16:08:44;6.53;;;2.70;;
75441;SDS011;64019;48.312;14.226;2022-10-23T16:11:17;6.13;;;2.80;;
75441;SDS011;64019;48.312;14.226;2022-10-23T16:13:45;6.70;;;2.70;;
75441;SDS011;64019;48.312;14.226;2022-10-23T16:16:11;6.33;;;2.73;;
75441;SDS011;64019;48.312;14.226;2022-10-23T16:18:38;5.80;;;2.40;;
75441;SDS011;64019;48.312;14.226;2022-10-23T16:21:05;8.53;;;2.97;;
75441;SDS011;64019;48.312;14.226;2022-10-23T16:23:31;3.93;;;2.53;;
75441;SDS011;64019;48.312;14.226;2022-10-23T16:26:00;10.63;;;3.20;;
75441;SDS011;64019;48.312;14.226;2022-10-23T16:28:30;6.23;;;2.83;;
75441;SDS011;64019;48.312;14.226;2022-10-23T16:30:56;6.23;;;3.27;;
75441;SDS011;64019;48.312;14.226;2022-10-23T16:33:21;7.27;;;2.53;;
75441;SDS011;64019;48.312;14.226;2022-10-23T16:35:47;8.63;;;3.57;;
75441;SDS011;64019;48.312;14.226;2022-10-23T16:38:12;14.13;;;4.17;;
75441;SDS011;64019;48.312;14.226;2022-10-23T16:40:38;9.87;;;4.13;;
75441;SDS011;64019;48.312;14.226;2022-10-23T16:43:04;10.90;;;4.10;;